Nikiski, Alaska

9:31 PM AKDT on July 25, 2016 (GMT -0800)
| | Change Station

Elev -9999 ft 0.00 °N, 0.00 °E | Updated

Cloudy
Cloudy
56 °F
Feels Like 56 °F
N
4
Wind Variable Wind from ENE
Gusts mph

Today
High -- | Low -- °F
--% Chance of Precip.
Yesterday
High -- | Low -- °F
Precip. -- in
Pressure 29.84 in
Visibility 10.0 miles
Clouds Scattered Clouds 6000 ft
Overcast 9000 ft
Dew Point 53 °F
Humidity 89%
Rainfall --
Snow Depth Not available.
5:26 AM 10:56 PM
Waning Gibbous, 58% visible
METAR PAEN 260453Z 35004KT 10SM SCT060 OVC090 14/13 A2984 RMK AO2 RAE33 SLP105 P0001 T01390128
Pressure 29.84 in
Visibility 10.0 miles
Clouds Scattered Clouds 6000 ft
Overcast 9000 ft
Dew Point 53 °F
Humidity 89%
Rainfall --
Snow Depth Not available.
5:26 AM 10:56 PM
Waning Gibbous, 58% visible
METAR PAEN 260453Z 35004KT 10SM SCT060 OVC090 14/13 A2984 RMK AO2 RAE33 SLP105 P0001 T01390128

10-Day Weather Forecast

Almanac

Astronomy

Jul. 25, 2016 Rise Set
Actual Time
Civil Twilight
Nautical Twilight
Astronomical Twilight
Moon
Length of Visible Light
Length of Day
Tomorrow will be .
, % of the Moon is Illuminated

Today's Extremes

State Highs State Lows

Community

WunderPhotos

Upload Photos

1,927,538 photos uploaded!

WunderBlog® & News

Nearby

Air Quality

  Air Quality AQ Index Pollutant
Not available.

Snow Depth

Station Depth Elevation

Earthquake Activity

City Distance Mag. Time & Date
Minimum magnitude displayed is 2.5.

Coastal Water Temperatures

Place Temperature

Stations

Nearby Weather Stations

Station Location Temp. Windchill Dew Point Humidity Wind Precip. Elev Updated Type
                   

Watches & Warnings

There are currently no watches in effect.